Time;durP1;ratioP1;P1;durP2;ratioP2;P2;SDS_P1;SDS_P2;PMS_P1;PMS_P2;Temp;Humidity;BMP_temperature;BMP_pressure;BME280_temperature;BME280_humidity;BME280_pressure;Samples;Min_cycle;Max_cycle;Signal;HPM_P1;HPM_P2
2022/10/01 00:02:25;;;;;;;28.12;24.27;;;22.10;65.50;;;;;;4457018;58;21514;-28
2022/10/01 00:07:28;;;;;;;28.62;24.98;;;22.10;65.50;;;;;;4443965;58;21067;-27
2022/10/01 00:12:29;;;;;;;28.15;24.58;;;22.10;65.50;;;;;;4453660;59;21159;-36
2022/10/01 00:17:30;;;;;;;29.50;25.30;;;22.10;65.50;;;;;;4442373;58;22021;-35
2022/10/01 00:22:32;;;;;;;25.17;22.48;;;22.10;65.50;;;;;;4454971;58;21124;-29
2022/10/01 00:27:34;;;;;;;26.98;23.98;;;22.10;65.40;;;;;;4440241;63;21077;-30
2022/10/01 00:32:35;;;;;;;25.33;22.60;;;22.20;65.50;;;;;;4452150;58;21558;-29
2022/10/01 00:37:36;;;;;;;25.90;23.08;;;22.20;66.10;;;;;;4466073;58;21059;-27
2022/10/01 00:42:37;;;;;;;26.30;23.50;;;22.20;65.50;;;;;;4456723;58;21538;-29
2022/10/01 00:47:59;;;;;;;25.98;23.17;;;22.10;65.50;;;;;;4449841;59;21523;-26
2022/10/01 00:53:03;;;;;;;27.92;23.35;;;22.20;65.40;;;;;;4456127;59;21534;-28
2022/10/01 00:58:09;;;;;;;25.98;23.17;;;22.20;65.40;;;;;;4463767;59;21056;-28
2022/10/01 01:03:11;;;;;;;27.37;22.92;;;22.10;65.40;;;;;;4469389;59;21064;-32
2022/10/01 01:08:12;;;;;;;25.83;22.67;;;22.20;65.40;;;;;;4476139;59;21127;-27
2022/10/01 01:13:32;;;;;;;25.00;21.62;;;22.20;65.40;;;;;;4442827;59;21079;-28
2022/10/01 01:19:03;;;;;;;23.67;20.98;;;22.20;65.40;;;;;;4452602;59;21056;-33
2022/10/01 01:24:55;;;;;;;25.60;21.30;;;22.20;65.40;;;;;;4453714;59;21076;-32
2022/10/01 01:30:09;;;;;;;24.87;21.73;;;22.10;65.30;;;;;;4470403;59;21068;-28
2022/10/01 01:35:15;;;;;;;23.27;20.55;;;22.20;65.40;;;;;;4465312;59;21613;-31
2022/10/01 01:40:18;;;;;;;23.60;21.10;;;22.20;65.30;;;;;;4477423;59;21526;-32
2022/10/01 01:45:24;;;;;;;22.35;19.85;;;22.10;65.30;;;;;;4485591;59;21072;-27
2022/10/01 01:50:29;;;;;;;24.67;20.33;;;22.10;65.20;;;;;;4439951;59;21060;-27
2022/10/01 01:55:31;;;;;;;23.35;20.85;;;22.20;65.30;;;;;;4445288;59;21212;-27
2022/10/01 02:00:31;;;;;;;22.45;19.90;;;22.10;65.20;;;;;;4498193;59;21561;-30
2022/10/01 02:05:42;;;;;;;23.08;20.08;;;22.20;65.30;;;;;;4440651;63;21056;-27
2022/10/01 02:11:32;;;;;;;23.42;19.80;;;22.10;65.30;;;;;;4447380;59;21040;-28
2022/10/01 02:17:00;;;;;;;22.08;19.52;;;22.10;65.20;;;;;;4478677;59;21037;-28
2022/10/01 02:22:11;;;;;;;21.05;18.85;;;22.10;65.20;;;;;;4450753;59;21597;-33
2022/10/01 02:27:31;;;;;;;22.48;20.08;;;22.10;65.20;;;;;;4454417;59;21160;-28
2022/10/01 02:32:36;;;;;;;22.17;19.30;;;22.10;65.20;;;;;;4439183;63;21052;-32
2022/10/01 02:37:39;;;;;;;21.25;18.37;;;22.20;65.30;;;;;;4439973;59;21530;-29
2022/10/01 02:42:44;;;;;;;22.83;19.80;;;22.10;65.20;;;;;;4463776;59;21028;-29
2022/10/01 02:47:53;;;;;;;19.27;17.27;;;22.10;65.20;;;;;;4477295;59;21040;-32
2022/10/01 02:54:22;;;;;;;19.98;17.85;;;22.10;65.20;;;;;;4464245;59;21061;-32
2022/10/01 02:59:23;;;;;;;20.30;17.37;;;22.10;65.10;;;;;;4455378;59;21105;-35
2022/10/01 03:04:24;;;;;;;21.10;18.17;;;22.10;65.10;;;;;;4440243;63;21040;-35
2022/10/01 03:09:25;;;;;;;19.67;17.65;;;22.10;65.20;;;;;;4439988;62;21145;-29
2022/10/01 03:14:27;;;;;;;19.67;17.58;;;22.10;65.20;;;;;;4440312;62;21518;-30
2022/10/01 03:19:28;;;;;;;19.70;17.27;;;22.10;65.10;;;;;;4473129;59;21044;-35
2022/10/01 03:24:29;;;;;;;19.23;17.25;;;22.10;65.10;;;;;;4487782;58;22049;-29
2022/10/01 03:29:29;;;;;;;19.62;16.73;;;22.10;65.10;;;;;;4568202;58;21526;-34
2022/10/01 03:34:30;;;;;;;18.95;16.92;;;22.10;65.10;;;;;;4480420;58;21084;-29
2022/10/01 03:39:31;;;;;;;19.70;17.50;;;22.10;65.10;;;;;;4442055;58;21076;-27
2022/10/01 03:44:32;;;;;;;18.67;16.67;;;22.10;65.70;;;;;;4458662;59;21080;-29
2022/10/01 03:49:34;;;;;;;19.92;17.40;;;22.10;65.10;;;;;;4440005;62;21542;-33
2022/10/01 03:54:35;;;;;;;18.73;16.73;;;22.10;65.80;;;;;;4444078;58;21542;-32
2022/10/01 03:59:35;;;;;;;18.52;16.20;;;22.10;65.00;;;;;;4490963;58;21039;-32
2022/10/01 04:04:36;;;;;;;17.90;16.00;;;22.10;65.00;;;;;;4460504;59;21068;-31
2022/10/01 04:09:37;;;;;;;18.70;16.70;;;22.10;65.00;;;;;;4455834;58;21538;-33
2022/10/01 04:14:38;;;;;;;17.55;15.70;;;22.10;65.10;;;;;;4484081;58;21113;-27
2022/10/01 04:19:39;;;;;;;18.77;15.88;;;22.10;65.00;;;;;;4475065;58;21044;-26
2022/10/01 04:24:41;;;;;;;17.35;15.38;;;22.10;65.00;;;;;;4469100;58;21467;-29
2022/10/01 04:29:42;;;;;;;17.35;15.55;;;22.10;64.90;;;;;;4453168;58;21728;-26
2022/10/01 04:34:51;;;;;;;16.90;15.15;;;22.10;64.90;;;;;;4452884;58;21097;-25
2022/10/01 04:39:53;;;;;;;17.23;14.77;;;22.10;65.00;;;;;;4444082;59;21557;-32
2022/10/01 04:44:53;;;;;;;16.00;14.43;;;22.10;64.90;;;;;;4469466;58;21569;-36
2022/10/01 04:49:54;;;;;;;16.37;14.68;;;22.10;65.50;;;;;;4476824;58;21080;-32
2022/10/01 04:54:55;;;;;;;17.40;15.20;;;22.10;64.80;;;;;;4484594;59;21056;-36
2022/10/01 04:59:56;;;;;;;16.83;14.90;;;22.10;64.80;;;;;;4472473;58;21040;-35
2022/10/01 05:04:56;;;;;;;16.62;14.68;;;22.10;64.80;;;;;;4451125;59;21565;-33
2022/10/01 05:09:59;;;;;;;15.80;14.15;;;22.10;64.80;;;;;;4439928;62;21549;-34
2022/10/01 05:14:59;;;;;;;15.90;14.02;;;22.10;64.80;;;;;;4439955;58;21602;-29
2022/10/01 05:20:02;;;;;;;15.68;13.90;;;22.10;64.80;;;;;;4440793;58;21108;-27
2022/10/01 05:25:05;;;;;;;16.17;14.45;;;22.10;64.80;;;;;;4467243;59;22072;-28
2022/10/01 05:30:11;;;;;;;15.70;13.62;;;22.10;64.70;;;;;;4439919;63;21583;-33
2022/10/01 05:35:12;;;;;;;14.85;13.35;;;22.10;64.70;;;;;;4450519;59;21064;-26
2022/10/01 05:40:13;;;;;;;17.30;13.98;;;22.10;64.70;;;;;;4460439;58;21045;-27
2022/10/01 05:45:14;;;;;;;14.50;12.95;;;22.10;64.70;;;;;;4476041;58;21550;-30
2022/10/01 05:50:16;;;;;;;13.77;12.37;;;22.10;64.70;;;;;;4468376;58;21120;-27
2022/10/01 05:55:17;;;;;;;14.87;12.65;;;22.10;65.20;;;;;;4459242;58;21546;-27
2022/10/01 06:00:19;;;;;;;16.23;13.40;;;22.10;65.00;;;;;;4477474;58;21056;-27
2022/10/01 06:05:20;;;;;;;15.40;13.27;;;22.10;64.60;;;;;;4440081;63;21507;-30
2022/10/01 06:10:22;;;;;;;14.13;12.50;;;22.10;64.60;;;;;;4458825;59;21115;-29
2022/10/01 06:15:23;;;;;;;15.90;13.05;;;22.10;64.60;;;;;;4479489;59;21060;-28
2022/10/01 06:20:23;;;;;;;15.00;13.25;;;22.10;64.50;;;;;;4440936;59;21025;-29
2022/10/01 06:25:27;;;;;;;14.73;12.90;;;22.10;64.50;;;;;;4441306;58;21556;-34
2022/10/01 06:30:30;;;;;;;14.75;12.65;;;22.10;64.50;;;;;;4450902;59;21668;-32
2022/10/01 06:35:33;;;;;;;16.05;13.50;;;22.10;64.50;;;;;;4460692;59;21518;-34
2022/10/01 06:40:34;;;;;;;14.30;12.80;;;22.10;64.50;;;;;;4469020;59;21040;-26
2022/10/01 06:45:38;;;;;;;14.35;12.80;;;22.00;64.40;;;;;;4510493;59;21140;-33
2022/10/01 06:50:39;;;;;;;17.00;13.05;;;22.10;64.50;;;;;;4451779;59;21075;-30
2022/10/01 06:55:41;;;;;;;15.48;13.25;;;22.10;64.50;;;;;;4440081;63;21124;-26
2022/10/01 07:00:42;;;;;;;14.60;12.13;;;22.00;64.40;;;;;;4460583;59;21112;-33
2022/10/01 07:05:43;;;;;;;16.55;13.73;;;22.10;64.50;;;;;;4456248;58;21526;-31
2022/10/01 07:10:44;;;;;;;16.20;12.90;;;22.10;64.50;;;;;;4444791;58;21113;-29
2022/10/01 07:15:46;;;;;;;16.80;13.10;;;22.10;64.50;;;;;;4440004;59;21056;-29
2022/10/01 07:20:47;;;;;;;16.17;13.07;;;22.00;64.40;;;;;;4464780;59;21051;-31
2022/10/01 07:25:47;;;;;;;14.90;13.23;;;22.10;64.50;;;;;;4483194;58;21148;-29
2022/10/01 07:32:43;;;;;;;14.85;13.15;;;22.10;64.50;;;;;;4459644;58;21060;-32
2022/10/01 07:37:45;;;;;;;15.15;13.05;;;22.00;64.40;;;;;;4447761;59;21048;-29
2022/10/01 07:42:55;;;;;;;15.18;13.02;;;22.10;64.50;;;;;;4461735;59;21172;-29
2022/10/01 07:47:58;;;;;;;16.55;13.50;;;22.00;64.40;;;;;;4444682;58;21108;-35
2022/10/01 07:52:59;;;;;;;14.60;12.82;;;22.10;64.50;;;;;;4439960;63;21060;-35
2022/10/01 07:58:03;;;;;;;16.40;14.30;;;22.10;64.50;;;;;;4446217;58;21040;-33
2022/10/01 08:03:04;;;;;;;16.12;13.95;;;22.10;64.50;;;;;;4442766;59;21092;-35
2022/10/01 08:08:07;;;;;;;15.88;14.02;;;22.00;64.40;;;;;;4465504;58;21178;-34
2022/10/01 08:13:15;;;;;;;18.98;13.75;;;22.10;64.90;;;;;;4452340;59;21748;-30
2022/10/01 08:18:16;;;;;;;17.20;13.75;;;22.10;64.50;;;;;;4444317;59;21136;-31
2022/10/01 08:23:17;;;;;;;19.35;13.62;;;22.10;64.50;;;;;;4444545;58;21032;-31
2022/10/01 08:28:18;;;;;;;16.83;14.48;;;22.10;64.50;;;;;;4454981;58;21577;-30
2022/10/01 08:33:19;;;;;;;19.08;13.85;;;22.10;64.50;;;;;;4446191;58;21522;-27
2022/10/01 08:38:20;;;;;;;15.93;13.82;;;22.10;64.50;;;;;;4453938;59;21060;-36
2022/10/01 08:43:37;;;;;;;16.23;13.60;;;22.10;64.50;;;;;;4466284;59;21068;-33
2022/10/01 08:49:10;;;;;;;14.55;13.00;;;22.10;64.50;;;;;;4440047;63;21208;-29
2022/10/01 08:55:36;;;;;;;15.15;13.18;;;22.10;64.50;;;;;;4450962;59;21101;-33
2022/10/01 09:00:40;;;;;;;15.07;13.18;;;22.10;64.50;;;;;;4441264;59;21503;-30
2022/10/01 09:06:12;;;;;;;16.10;13.15;;;22.10;64.50;;;;;;4439461;59;21108;-38
2022/10/01 09:11:49;;;;;;;16.30;13.88;;;22.10;64.50;;;;;;4440871;59;21116;-31
2022/10/01 09:17:35;;;;;;;15.65;13.85;;;22.10;64.50;;;;;;4472440;59;21068;-27
2022/10/01 09:23:01;;;;;;;16.90;13.63;;;22.10;64.50;;;;;;4441229;59;21113;-34
2022/10/01 09:28:14;;;;;;;15.10;13.05;;;22.10;64.50;;;;;;4455674;59;21523;-33
2022/10/01 09:33:19;;;;;;;15.43;13.43;;;22.10;64.50;;;;;;4448646;59;21168;-30
2022/10/01 09:38:39;;;;;;;15.40;13.07;;;22.10;64.50;;;;;;4472614;59;21532;-28
2022/10/01 09:43:42;;;;;;;15.50;13.38;;;22.10;64.50;;;;;;4447075;59;21092;-29
2022/10/01 09:49:33;;;;;;;15.98;13.18;;;22.10;64.50;;;;;;4449472;59;21137;-28
2022/10/01 09:54:42;;;;;;;16.62;13.20;;;22.10;64.50;;;;;;4440043;63;21622;-33
2022/10/01 09:59:53;;;;;;;17.37;13.98;;;22.10;64.50;;;;;;4442991;59;21101;-34
2022/10/01 10:05:02;;;;;;;16.25;13.52;;;22.10;64.50;;;;;;4457879;59;21068;-32
2022/10/01 10:10:18;;;;;;;16.25;13.07;;;22.00;64.40;;;;;;4445850;59;21176;-28
2022/10/01 10:15:21;;;;;;;15.23;13.43;;;22.10;64.50;;;;;;4440968;63;21566;-27
2022/10/01 10:20:29;;;;;;;15.85;13.48;;;22.10;64.50;;;;;;4440481;63;21132;-29
2022/10/01 10:25:29;;;;;;;15.75;13.00;;;22.10;65.10;;;;;;4455877;59;21103;-28
2022/10/01 10:30:35;;;;;;;16.40;13.68;;;22.10;64.50;;;;;;4451211;58;21124;-28
2022/10/01 10:35:36;;;;;;;14.98;13.23;;;22.10;64.50;;;;;;4452420;59;21247;-33
2022/10/01 10:40:42;;;;;;;15.82;13.90;;;22.10;64.50;;;;;;4445245;58;21064;-29
2022/10/01 10:45:45;;;;;;;15.43;13.65;;;22.10;64.50;;;;;;4471427;59;21128;-32
2022/10/01 10:50:46;;;;;;;15.30;13.65;;;22.10;64.50;;;;;;4442406;58;21638;-33
2022/10/01 10:56:23;;;;;;;16.52;13.80;;;22.10;64.50;;;;;;4446166;58;21623;-30
2022/10/01 11:01:28;;;;;;;14.77;13.18;;;22.10;64.50;;;;;;4441039;63;21506;-37
2022/10/01 11:06:29;;;;;;;15.15;13.55;;;22.10;64.50;;;;;;4442399;59;21036;-30
2022/10/01 11:11:58;;;;;;;15.43;13.77;;;22.10;64.50;;;;;;4439878;62;21109;-28
2022/10/01 11:20:41;;;;;;;14.20;12.70;;;22.10;64.50;;;;;;4470032;59;21097;-28
2022/10/01 11:29:23;;;;;;;16.20;13.77;;;22.10;64.50;;;;;;4441002;59;21079;-29
2022/10/01 11:38:05;;;;;;;17.70;14.05;;;22.10;64.50;;;;;;4440697;59;21064;-29
2022/10/01 11:43:30;;;;;;;16.67;14.63;;;22.10;64.50;;;;;;4443424;59;21621;-30
2022/10/01 11:48:40;;;;;;;15.88;13.38;;;22.20;64.60;;;;;;4454283;59;21167;-33
2022/10/01 11:53:47;;;;;;;16.35;14.10;;;22.10;64.50;;;;;;4464513;59;21064;-35
2022/10/01 11:59:20;;;;;;;17.77;13.75;;;22.10;64.50;;;;;;4448524;59;21100;-31
2022/10/01 12:05:31;;;;;;;17.52;14.05;;;22.10;64.50;;;;;;4440106;63;22225;-30
2022/10/01 12:10:59;;;;;;;16.75;13.95;;;22.10;64.50;;;;;;4439807;63;21111;-29
2022/10/01 12:18:00;;;;;;;18.27;14.68;;;22.10;64.50;;;;;;4444265;59;21514;-29
2022/10/01 12:23:04;;;;;;;16.83;13.85;;;22.20;64.50;;;;;;4441461;59;21048;-29
2022/10/01 12:28:56;;;;;;;16.95;14.30;;;22.10;64.50;;;;;;4440940;59;21060;-28
2022/10/01 12:36:02;;;;;;;19.00;15.38;;;22.10;64.50;;;;;;4439622;59;21171;-32
2022/10/01 12:42:13;;;;;;;18.67;15.82;;;22.20;64.50;;;;;;4439976;63;21530;-31
2022/10/01 12:48:16;;;;;;;17.55;15.27;;;22.20;64.50;;;;;;4461959;59;21192;-36
2022/10/01 12:57:02;;;;;;;17.45;14.82;;;22.10;64.50;;;;;;4439855;59;21141;-34
2022/10/01 13:02:31;;;;;;;18.30;15.30;;;22.10;64.50;;;;;;4452927;59;22312;-30
2022/10/01 13:07:49;;;;;;;18.70;15.65;;;22.20;64.60;;;;;;4441812;59;21048;-35
2022/10/01 13:12:58;;;;;;;;;;;22.20;64.60;;;;;;4452508;59;21674;-27
2022/10/01 13:18:29;;;;;;;20.00;15.77;;;22.10;64.60;;;;;;4462898;58;20131;-28
2022/10/01 13:26:12;;;;;;;19.27;15.48;;;22.20;64.70;;;;;;4440573;59;21061;-31
2022/10/01 13:31:15;;;;;;;18.73;15.50;;;22.10;64.60;;;;;;4458774;59;21096;-33
2022/10/01 13:36:27;;;;;;;17.45;15.32;;;22.10;64.60;;;;;;4471412;59;21039;-33
2022/10/01 13:41:33;;;;;;;17.50;15.57;;;22.20;65.30;;;;;;4461093;59;21089;-32
2022/10/01 13:46:51;;;;;;;19.10;15.85;;;22.10;64.70;;;;;;4439117;63;21653;-33
2022/10/01 13:51:53;;;;;;;19.95;15.35;;;22.10;64.70;;;;;;4454652;59;21092;-32
2022/10/01 13:56:54;;;;;;;15.85;14.15;;;22.20;64.70;;;;;;4451406;59;21064;-36
2022/10/01 14:01:55;;;;;;;19.02;15.73;;;22.10;64.70;;;;;;4440047;62;21155;-33
2022/10/01 14:07:16;;;;;;;17.05;15.05;;;22.20;64.80;;;;;;4451821;58;21550;-29
2022/10/01 14:18:05;;;;;;;19.27;15.73;;;22.20;64.80;;;;;;4440419;59;21152;-31
2022/10/01 14:23:18;;;;;;;17.17;14.98;;;22.20;64.80;;;;;;4448481;59;21189;-33
2022/10/01 14:29:59;;;;;;;18.73;15.63;;;22.10;64.80;;;;;;4440355;63;21676;-36
2022/10/01 14:35:25;;;;;;;17.70;15.13;;;22.10;64.80;;;;;;4441305;59;21056;-33
2022/10/01 14:40:38;;;;;;;18.87;15.07;;;22.20;64.90;;;;;;4443519;59;21028;-38
2022/10/01 14:45:55;;;;;;;17.00;15.20;;;22.20;64.90;;;;;;4440342;59;21642;-35
2022/10/01 14:50:59;;;;;;;18.13;15.93;;;22.20;64.90;;;;;;4441052;59;21088;-31
2022/10/01 14:56:05;;;;;;;17.65;15.57;;;22.20;65.00;;;;;;4440220;59;21060;-33
2022/10/01 15:01:13;;;;;;;17.48;15.63;;;22.20;64.90;;;;;;4440662;63;21591;-33
2022/10/01 15:06:16;;;;;;;16.75;14.95;;;22.20;64.90;;;;;;4473462;59;21116;-30
2022/10/01 15:11:29;;;;;;;18.15;15.80;;;22.20;64.90;;;;;;4443580;59;21133;-33
2022/10/01 15:16:31;;;;;;;17.80;15.30;;;22.20;64.90;;;;;;4440240;59;21056;-29
2022/10/01 15:22:07;;;;;;;16.45;14.57;;;22.20;65.00;;;;;;4440268;63;21088;-29
2022/10/01 15:27:12;;;;;;;16.90;15.05;;;22.20;65.00;;;;;;4440764;59;21044;-28
2022/10/01 15:32:17;;;;;;;17.95;15.50;;;22.20;65.00;;;;;;4440523;59;21124;-36
2022/10/01 15:37:59;;;;;;;16.73;14.77;;;22.20;65.00;;;;;;4439992;63;21064;-29
2022/10/01 15:43:36;;;;;;;17.17;15.30;;;22.20;65.00;;;;;;4481499;59;21561;-26
2022/10/01 15:48:37;;;;;;;;;;;22.20;65.10;;;;;;4443422;63;21546;-30
2022/10/01 15:53:38;;;;;;;17.23;14.98;;;22.20;65.00;;;;;;4439111;63;20098;-28
2022/10/01 15:59:10;;;;;;;17.83;14.82;;;22.10;65.00;;;;;;4440273;59;22137;-32
2022/10/01 16:04:14;;;;;;;16.20;14.50;;;22.20;65.10;;;;;;4469486;59;21062;-30
2022/10/01 16:09:23;;;;;;;17.73;15.23;;;22.10;65.00;;;;;;4440300;63;21109;-29
2022/10/01 16:14:36;;;;;;;17.55;15.32;;;22.10;65.00;;;;;;4447169;59;21088;-31
2022/10/01 16:19:37;;;;;;;17.48;15.10;;;22.10;65.10;;;;;;4444960;59;21048;-27
2022/10/01 16:24:44;;;;;;;15.75;14.15;;;22.20;65.10;;;;;;4439784;62;21060;-36
2022/10/01 16:30:48;;;;;;;15.32;13.73;;;22.10;65.00;;;;;;4467340;59;21093;-30
2022/10/01 16:35:49;;;;;;;16.90;14.75;;;22.10;65.00;;;;;;4456828;59;21108;-27
2022/10/01 16:40:51;;;;;;;17.98;14.75;;;22.20;65.10;;;;;;4459950;58;21040;-29
2022/10/01 16:45:52;;;;;;;17.25;14.75;;;22.20;65.10;;;;;;4439614;59;21155;-32
2022/10/01 16:50:55;;;;;;;15.68;14.07;;;22.20;65.10;;;;;;4445856;58;21072;-27
2022/10/01 16:55:57;;;;;;;16.37;14.68;;;22.10;65.10;;;;;;4446422;58;21597;-35
2022/10/01 17:00:57;;;;;;;15.82;14.13;;;22.20;65.10;;;;;;4501620;58;21131;-30
2022/10/01 17:05:58;;;;;;;16.52;14.73;;;22.10;65.10;;;;;;4462709;59;21078;-34
2022/10/01 17:11:02;;;;;;;17.55;15.02;;;22.20;65.20;;;;;;4462598;59;21076;-28
2022/10/01 17:16:04;;;;;;;15.73;13.98;;;22.10;65.10;;;;;;4454192;59;21053;-34
2022/10/01 17:21:05;;;;;;;15.55;13.90;;;22.10;65.10;;;;;;4448486;58;21529;-33
2022/10/01 17:26:08;;;;;;;15.65;13.65;;;22.20;65.10;;;;;;4472153;58;21068;-33
2022/10/01 17:31:09;;;;;;;15.48;13.65;;;22.10;65.10;;;;;;4445981;59;21569;-30
2022/10/01 17:36:10;;;;;;;16.08;14.07;;;22.20;65.10;;;;;;4445078;58;21623;-36
2022/10/01 17:41:11;;;;;;;15.43;13.80;;;22.20;65.20;;;;;;4459220;58;21056;-28
2022/10/01 17:46:12;;;;;;;15.38;13.70;;;22.20;65.20;;;;;;4440335;59;21101;-34
2022/10/01 17:51:15;;;;;;;16.23;13.40;;;22.20;65.10;;;;;;4445275;58;21649;-27
2022/10/01 17:56:18;;;;;;;15.95;14.15;;;22.20;65.20;;;;;;4456304;58;21602;-32
2022/10/01 18:01:20;;;;;;;15.15;13.55;;;22.10;65.10;;;;;;4452364;59;21044;-28
2022/10/01 18:06:23;;;;;;;14.65;13.15;;;22.20;65.20;;;;;;4463974;59;21633;-30
2022/10/01 18:11:26;;;;;;;15.30;13.70;;;22.20;65.20;;;;;;4444522;59;21080;-28
2022/10/01 18:16:27;;;;;;;15.05;13.45;;;22.20;65.20;;;;;;4475624;59;21024;-28
2022/10/01 18:21:28;;;;;;;15.32;13.73;;;22.20;65.20;;;;;;4443858;58;21060;-34
2022/10/01 18:26:29;;;;;;;14.85;12.95;;;22.20;65.20;;;;;;4455776;59;21108;-31
2022/10/01 18:31:36;;;;;;;14.77;13.18;;;22.20;65.20;;;;;;4441253;58;21550;-32
2022/10/01 18:39:18;;;;;;;15.95;13.68;;;22.20;65.20;;;;;;4457431;59;21185;-35
2022/10/01 18:44:19;;;;;;;14.68;13.18;;;22.20;65.30;;;;;;4452412;59;21080;-35
2022/10/01 18:51:49;;;;;;;14.27;12.68;;;22.20;65.30;;;;;;4439919;63;21044;-34
2022/10/01 18:57:13;;;;;;;13.90;12.50;;;22.20;65.30;;;;;;4440167;63;21637;-31
2022/10/01 19:08:01;;;;;;;14.82;13.25;;;22.20;65.30;;;;;;4454641;59;21063;-36
2022/10/01 19:14:35;;;;;;;13.98;12.57;;;22.20;65.30;;;;;;4455964;59;21092;-34
2022/10/01 19:20:00;;;;;;;14.40;12.77;;;22.20;65.30;;;;;;4440530;63;21036;-26
2022/10/01 19:25:32;;;;;;;14.75;13.13;;;22.20;65.30;;;;;;4440381;63;21064;-35
2022/10/01 19:32:08;;;;;;;13.35;11.95;;;22.20;65.40;;;;;;4450399;59;21104;-31
2022/10/01 19:37:35;;;;;;;14.27;12.57;;;22.20;65.30;;;;;;4449574;59;21068;-29
2022/10/01 19:42:41;;;;;;;13.40;12.00;;;22.20;65.50;;;;;;4442085;59;21573;-28
2022/10/01 19:50:50;;;;;;;14.18;12.68;;;22.20;65.40;;;;;;4440755;59;21064;-31
2022/10/01 19:55:53;;;;;;;13.60;12.18;;;22.20;65.40;;;;;;4440884;59;22030;-28
2022/10/01 20:00:55;;;;;;;14.70;12.63;;;22.20;65.40;;;;;;4449627;59;21076;-34
2022/10/01 20:06:17;;;;;;;13.95;12.43;;;22.20;65.40;;;;;;4469716;59;21052;-29
2022/10/01 20:11:38;;;;;;;14.93;13.35;;;22.20;65.40;;;;;;4451545;59;21128;-32
2022/10/01 20:16:50;;;;;;;13.90;12.40;;;22.20;65.40;;;;;;4474370;59;21052;-28
2022/10/01 20:22:37;;;;;;;13.57;11.85;;;22.20;65.40;;;;;;4440334;63;21614;-28
2022/10/01 20:36:03;;;;;;;12.93;11.45;;;22.20;65.40;;;;;;4453439;59;21040;-31
2022/10/01 20:41:13;;;;;;;12.48;11.18;;;22.20;65.40;;;;;;4450042;59;21748;-34
2022/10/01 20:46:39;;;;;;;13.45;11.65;;;22.20;65.40;;;;;;4439583;63;21165;-33
2022/10/01 20:54:53;;;;;;;13.32;11.95;;;22.20;65.50;;;;;;4440777;59;21136;-30
2022/10/01 21:00:01;;;;;;;14.25;11.63;;;22.10;65.40;;;;;;4440287;59;21438;-30
2022/10/01 21:06:39;;;;;;;15.70;12.43;;;22.20;66.00;;;;;;4440268;63;21569;-30
2022/10/01 21:11:55;;;;;;;13.77;12.32;;;22.20;65.40;;;;;;4453028;59;21155;-30
2022/10/01 21:17:26;;;;;;;12.75;11.40;;;22.10;65.30;;;;;;4440458;63;21064;-30
2022/10/01 21:25:56;;;;;;;13.65;12.13;;;22.20;65.40;;;;;;4439864;60;21064;-28
2022/10/01 21:34:51;;;;;;;12.23;11.00;;;22.10;65.30;;;;;;4458213;59;21092;-36
2022/10/01 21:40:07;;;;;;;12.45;11.23;;;22.20;65.40;;;;;;4445456;59;21578;-30
2022/10/01 21:47:02;;;;;;;13.43;11.85;;;22.20;65.30;;;;;;4460336;59;21211;-27
2022/10/01 21:55:39;;;;;;;14.52;12.13;;;22.20;65.40;;;;;;4439782;59;21168;-33
2022/10/01 22:00:40;;;;;;;13.02;11.63;;;22.20;65.30;;;;;;4440252;63;21542;-37
2022/10/01 22:06:14;;;;;;;12.35;11.05;;;22.10;65.30;;;;;;4439964;63;21064;-32
2022/10/01 22:11:22;;;;;;;12.37;11.10;;;22.20;65.40;;;;;;4482204;59;21554;-31
2022/10/01 22:16:27;;;;;;;12.77;11.48;;;22.10;65.40;;;;;;4498481;59;21088;-32
2022/10/01 22:21:46;;;;;;;12.82;11.52;;;22.10;65.30;;;;;;4448826;59;21069;-32
2022/10/01 22:26:58;;;;;;;14.00;12.50;;;22.10;65.30;;;;;;4440399;63;21085;-29
2022/10/01 22:32:03;;;;;;;13.23;11.63;;;22.20;65.40;;;;;;4451590;59;21056;-34
2022/10/01 22:37:18;;;;;;;13.57;11.43;;;22.10;65.50;;;;;;4447383;59;21093;-35
2022/10/01 22:42:34;;;;;;;12.37;11.07;;;22.10;65.30;;;;;;4442364;59;21112;-32
2022/10/01 22:48:13;;;;;;;12.63;11.32;;;22.10;65.30;;;;;;4456195;59;21505;-30
2022/10/01 22:54:57;;;;;;;12.63;11.20;;;22.10;65.30;;;;;;4439314;59;21057;-32
2022/10/01 23:00:11;;;;;;;13.55;11.70;;;22.10;65.30;;;;;;4456039;59;21041;-29
2022/10/01 23:05:34;;;;;;;12.75;11.18;;;22.20;65.40;;;;;;4449744;59;21685;-31
2022/10/01 23:12:54;;;;;;;12.05;10.80;;;22.10;65.30;;;;;;4449655;59;21077;-36
2022/10/01 23:18:27;;;;;;;12.35;11.05;;;22.20;65.40;;;;;;4443583;59;21446;-33
2022/10/01 23:23:33;;;;;;;12.90;11.25;;;22.20;65.40;;;;;;4458145;59;21175;-31
2022/10/01 23:29:06;;;;;;;12.75;10.95;;;22.10;65.40;;;;;;4469963;59;21108;-34
2022/10/01 23:34:39;;;;;;;12.82;10.90;;;22.20;65.40;;;;;;4470250;59;21076;-30
2022/10/01 23:40:28;;;;;;;12.63;11.20;;;22.10;65.40;;;;;;4455150;59;21108;-34
2022/10/01 23:45:50;;;;;;;12.25;10.93;;;22.20;65.40;;;;;;4468601;59;21127;-27
2022/10/01 23:51:08;;;;;;;13.10;11.70;;;22.20;65.40;;;;;;4462055;59;21156;-34
2022/10/01 23:56:50;;;;;;;13.45;11.38;;;22.10;65.40;;;;;;4439387;59;21590;-27
